Time;durP1;ratioP1;P1;durP2;ratioP2;P2;SDS_P1;SDS_P2;PMS_P1;PMS_P2;Temp;Humidity;BMP_temperature;BMP_pressure;BME280_temperature;BME280_humidity;BME280_pressure;Samples;Min_cycle;Max_cycle;Signal;HPM_P1;HPM_P2
2022/03/24 00:00:07;;;;;;;;;;;;;;;;;;350085;28;960;-72
2022/03/24 00:00:18;;;;;;;;;;;;;;;;;;350059;28;1064;-72
2022/03/24 00:00:28;;;;;;;;;;;;;;;;;;350110;28;1067;-72
2022/03/24 00:00:39;;;;;;;;;;;;;;;;;;350059;28;1039;-72
2022/03/24 00:00:49;;;;;;;;;;;;;;;;;;350164;28;850;-72
2022/03/24 00:00:59;;;;;;;;;;;;;;;;;;350162;28;793;-72
2022/03/24 00:01:10;;;;;;;;;;;;;;;;;;350032;28;773;-73
2022/03/24 00:01:21;;;;;;;;;;;;;;;;;;350083;28;913;-72
2022/03/24 00:01:31;;;;;;;;;;;;;;;;;;350209;28;817;-72
2022/03/24 00:01:41;;;;;;;;;;;;;;;;;;350154;28;1883;-72
2022/03/24 00:01:51;;;;;;;;;;;;;;;;;;350129;28;802;-72
2022/03/24 00:02:02;;;;;;;;;;;;;;;;;;350069;28;924;-72
2022/03/24 00:02:12;;;;;;;;;;;;;;;;;;350088;28;916;-72
2022/03/24 00:02:23;;;;;;;;;;;;;;;;;;350046;28;1102;-72
2022/03/24 00:02:34;;;;;;;;;;;;;;;;;;350116;28;921;-72
2022/03/24 00:02:44;;;;;;;;;;;;;;;;;;350161;28;979;-72
2022/03/24 00:02:54;;;;;;;;;;;;;;;;;;350096;28;983;-73
2022/03/24 00:03:06;;;;;;;;;;;;;;;;;;350150;28;783;-72
2022/03/24 00:03:16;;;;;;;;;;;;;;;;;;350110;28;956;-72
2022/03/24 00:03:26;;;;;;;;;;;;;;;;;;350195;28;763;-72
2022/03/24 00:03:36;;;;;;;;;;;;;;;;;;350140;28;956;-72
2022/03/24 00:03:47;;;;;;;;;;;;;;;;;;350063;28;932;-72
2022/03/24 00:03:57;;;;;;;;;;;;;;;;;;350137;28;952;-72
2022/03/24 00:04:07;;;;;;;;;;;;;;;;;;350101;28;1012;-72
2022/03/24 00:04:17;;;;;;;;;;;;;;;;;;350082;28;972;-72
2022/03/24 00:04:28;;;;;;;;;;;;;;;;;;350073;28;924;-72
2022/03/24 00:04:38;;;;;;;;;;;;;;;;;;350068;28;940;-72
2022/03/24 00:04:48;;;;;;;;;;;;;;;;;;350199;28;858;-72
2022/03/24 00:04:58;;;;;;;;;;;;;;;;;;350001;28;1831;-72
2022/03/24 00:05:11;;;;;;;;;;;;;;;;;;350502;28;1725;-72
2022/03/24 00:05:21;;;;;;;;;;;;;;;;;;351484;28;975;-72
2022/03/24 00:05:32;;;;;;;;;;;;;;;;;;351483;28;900;-72
2022/03/24 00:05:42;;;;;;;;;;;;;;;;;;351554;27;972;-72
2022/03/24 00:05:53;;;;;;;;;;;;;;;;;;351539;28;991;-72
2022/03/24 00:06:03;;;;;;;;;;;;;;;;;;351431;28;1020;-72
2022/03/24 00:06:14;;;;;;;;;;;;;;;;;;351505;28;861;-72
2022/03/24 00:06:24;;;;;;;;;;;;;;;;;;351442;28;952;-72
2022/03/24 00:06:34;;;;;;;;;;;;;;;;;;351487;28;782;-72
2022/03/24 00:06:44;;;;;;;;;;;;;;;;;;351513;28;960;-72
2022/03/24 00:06:55;;;;;;;;;;;;;;;;;;351515;28;968;-72
2022/03/24 00:07:05;;;;;;;;;;;;;;;;;;351518;28;940;-72
2022/03/24 00:07:16;;;;;;;;;;;;;;;;;;351501;28;896;-72
2022/03/24 00:07:26;;;;;;;;;;;;;;;;;;353341;27;1483;-72
2022/03/24 00:07:36;;;;;;;;;;;;;;;;;;353419;27;1452;-72
2022/03/24 00:07:47;;;;;;;;;;;;;;;;;;354232;27;1015;-72
2022/03/24 00:07:57;;;;;;;;;;;;;;;;;;354283;27;979;-72
2022/03/24 00:08:08;;;;;;;;;;;;;;;;;;354226;27;786;-72
2022/03/24 00:08:19;;;;;;;;;;;;;;;;;;354227;27;927;-72
2022/03/24 00:08:29;;;;;;;;;;;;;;;;;;354206;27;983;-72
2022/03/24 00:08:39;;;;;;;;;;;;;;;;;;354032;27;987;-72
2022/03/24 00:08:49;;;;;;;;;;;;;;;;;;354277;27;908;-72
2022/03/24 00:09:00;;;;;;;;;;;;;;;;;;354257;27;808;-72
2022/03/24 00:09:10;;;;;;;;;;;;;;;;;;354278;27;833;-72
2022/03/24 00:09:20;;;;;;;;;;;;;;;;;;353282;27;987;-72
2022/03/24 00:09:30;;;;;;;;;;;;;;;;;;351515;28;908;-72
2022/03/24 00:09:40;;;;;;;;;;;;;;;;;;351525;28;928;-72
2022/03/24 00:09:51;;;;;;;;;;;;;;;;;;351500;28;929;-72
2022/03/24 00:10:01;;;;;;;;;;;;;;;;;;351491;28;1130;-72
2022/03/24 00:10:11;;;;;;;;;;;;;;;;;;351526;28;940;-72
2022/03/24 00:10:23;;;;;;;;;;;;;;;;;;351519;28;913;-72
2022/03/24 00:10:35;;;;;;;;;;;;;;;;;;351496;28;869;-72
2022/03/24 00:10:45;;;;;;;;;;;;;;;;;;351473;28;897;-72
2022/03/24 00:10:55;;;;;;;;;;;;;;;;;;351525;28;794;-72
2022/03/24 00:11:06;;;;;;;;;;;;;;;;;;351540;28;912;-72
2022/03/24 00:11:17;;;;;;;;;;;;;;;;;;351544;28;936;-72
2022/03/24 00:11:27;;;;;;;;;;;;;;;;;;351532;28;840;-72
2022/03/24 00:11:38;;;;;;;;;;;;;;;;;;351463;28;933;-72
2022/03/24 00:11:48;;;;;;;;;;;;;;;;;;351520;28;818;-72
2022/03/24 00:11:59;;;;;;;;;;;;;;;;;;351509;28;964;-71
2022/03/24 00:12:10;;;;;;;;;;;;;;;;;;351493;28;861;-72
2022/03/24 00:12:22;;;;;;;;;;;;;;;;;;351504;28;953;-72
2022/03/24 00:12:34;;;;;;;;;;;;;;;;;;351536;28;893;-72
2022/03/24 00:12:44;;;;;;;;;;;;;;;;;;351430;28;979;-72
2022/03/24 00:12:57;;;;;;;;;;;;;;;;;;351527;28;924;-72
2022/03/24 00:13:08;;;;;;;;;;;;;;;;;;351505;28;1000;-72
2022/03/24 00:13:18;;;;;;;;;;;;;;;;;;351444;28;979;-72
2022/03/24 00:13:28;;;;;;;;;;;;;;;;;;351505;28;812;-72
2022/03/24 00:13:38;;;;;;;;;;;;;;;;;;351509;28;952;-72
2022/03/24 00:13:49;;;;;;;;;;;;;;;;;;351488;28;909;-72
2022/03/24 00:13:59;;;;;;;;;;;;;;;;;;351445;28;1021;-72
2022/03/24 00:14:09;;;;;;;;;;;;;;;;;;351516;28;917;-72
2022/03/24 00:14:19;;;;;;;;;;;;;;;;;;351497;28;889;-72
2022/03/24 00:14:30;;;;;;;;;;;;;;;;;;351510;28;983;-72
2022/03/24 00:14:40;;;;;;;;;;;;;;;;;;351500;28;953;-72
2022/03/24 00:14:50;;;;;;;;;;;;;;;;;;351393;28;920;-72
2022/03/24 00:15:04;;;;;;;;;;;;;;;;;;351427;28;1147;-72
2022/03/24 00:15:14;;;;;;;;;;;;;;;;;;351434;28;1055;-72
2022/03/24 00:15:25;;;;;;;;;;;;;;;;;;351434;28;884;-72
2022/03/24 00:15:35;;;;;;;;;;;;;;;;;;351538;28;869;-72
2022/03/24 00:15:46;;;;;;;;;;;;;;;;;;351549;27;877;-72
2022/03/24 00:15:56;;;;;;;;;;;;;;;;;;351489;28;850;-72
2022/03/24 00:16:07;;;;;;;;;;;;;;;;;;351459;28;1347;-72
2022/03/24 00:16:19;;;;;;;;;;;;;;;;;;351488;28;980;-73
2022/03/24 00:16:29;;;;;;;;;;;;;;;;;;350662;28;1835;-72
2022/03/24 00:16:39;;;;;;;;;;;;;;;;;;350291;28;1736;-72
2022/03/24 00:16:49;;;;;;;;;;;;;;;;;;351302;28;1179;-72
2022/03/24 00:17:00;;;;;;;;;;;;;;;;;;351520;28;821;-72
2022/03/24 00:17:10;;;;;;;;;;;;;;;;;;350568;28;1744;-72
2022/03/24 00:17:20;;;;;;;;;;;;;;;;;;350008;28;1721;-73
2022/03/24 00:17:31;;;;;;;;;;;;;;;;;;351185;28;1779;-72
2022/03/24 00:17:41;;;;;;;;;;;;;;;;;;352613;28;1411;-72
2022/03/24 00:17:52;;;;;;;;;;;;;;;;;;352456;28;1724;-72
2022/03/24 00:18:03;;;;;;;;;;;;;;;;;;351470;28;987;-72
2022/03/24 00:18:13;;;;;;;;;;;;;;;;;;351473;28;995;-72
2022/03/24 00:18:23;;;;;;;;;;;;;;;;;;351441;28;960;-72
2022/03/24 00:18:34;;;;;;;;;;;;;;;;;;351473;28;924;-72
2022/03/24 00:18:45;;;;;;;;;;;;;;;;;;351522;28;1016;-72
2022/03/24 00:18:56;;;;;;;;;;;;;;;;;;351428;28;975;-72
2022/03/24 00:19:07;;;;;;;;;;;;;;;;;;351542;28;932;-72
2022/03/24 00:19:19;;;;;;;;;;;;;;;;;;351461;28;1003;-72
2022/03/24 00:19:30;;;;;;;;;;;;;;;;;;351481;28;865;-72
2022/03/24 00:19:40;;;;;;;;;;;;;;;;;;351450;28;987;-72
2022/03/24 00:19:50;;;;;;;;;;;;;;;;;;351536;28;880;-72
2022/03/24 00:20:01;;;;;;;;;;;;;;;;;;351393;28;1148;-72
2022/03/24 00:20:12;;;;;;;;;;;;;;;;;;351524;28;936;-72
2022/03/24 00:20:24;;;;;;;;;;;;;;;;;;351540;28;992;-72
2022/03/24 00:20:34;;;;;;;;;;;;;;;;;;351415;28;1008;-72
2022/03/24 00:20:45;;;;;;;;;;;;;;;;;;351454;28;1015;-72
2022/03/24 00:20:55;;;;;;;;;;;;;;;;;;351485;28;886;-72
2022/03/24 00:21:05;;;;;;;;;;;;;;;;;;351473;28;802;-72
2022/03/24 00:21:16;;;;;;;;;;;;;;;;;;351376;28;1156;-72
2022/03/24 00:21:26;;;;;;;;;;;;;;;;;;351459;28;940;-72
2022/03/24 00:21:37;;;;;;;;;;;;;;;;;;351494;28;952;-72
2022/03/24 00:21:47;;;;;;;;;;;;;;;;;;351448;28;913;-72
2022/03/24 00:21:58;;;;;;;;;;;;;;;;;;351510;28;929;-72
2022/03/24 00:22:08;;;;;;;;;;;;;;;;;;351484;28;893;-72
2022/03/24 00:22:18;;;;;;;;;;;;;;;;;;351489;28;964;-72
2022/03/24 00:22:28;;;;;;;;;;;;;;;;;;351495;28;960;-72
2022/03/24 00:22:39;;;;;;;;;;;;;;;;;;351462;28;881;-72
2022/03/24 00:22:49;;;;;;;;;;;;;;;;;;351469;28;924;-72
2022/03/24 00:22:59;;;;;;;;;;;;;;;;;;351502;28;825;-72
2022/03/24 00:23:10;;;;;;;;;;;;;;;;;;351429;28;972;-72
2022/03/24 00:23:20;;;;;;;;;;;;;;;;;;351518;28;821;-72
2022/03/24 00:23:30;;;;;;;;;;;;;;;;;;351414;28;932;-72
2022/03/24 00:23:40;;;;;;;;;;;;;;;;;;351448;28;1069;-72
2022/03/24 00:23:51;;;;;;;;;;;;;;;;;;351557;28;904;-72
2022/03/24 00:24:01;;;;;;;;;;;;;;;;;;351492;28;861;-72
2022/03/24 00:24:11;;;;;;;;;;;;;;;;;;351458;28;932;-72
2022/03/24 00:24:22;;;;;;;;;;;;;;;;;;351471;28;1129;-72
2022/03/24 00:24:32;;;;;;;;;;;;;;;;;;351516;28;900;-72
2022/03/24 00:24:42;;;;;;;;;;;;;;;;;;351507;28;948;-72
2022/03/24 00:24:52;;;;;;;;;;;;;;;;;;351455;28;916;-73
2022/03/24 00:25:03;;;;;;;;;;;;;;;;;;351518;28;841;-72
2022/03/24 00:25:13;;;;;;;;;;;;;;;;;;351466;28;909;-72
2022/03/24 00:25:24;;;;;;;;;;;;;;;;;;351456;28;992;-72
2022/03/24 00:25:34;;;;;;;;;;;;;;;;;;351477;28;885;-73
2022/03/24 00:25:45;;;;;;;;;;;;;;;;;;351490;28;924;-72
2022/03/24 00:25:55;;;;;;;;;;;;;;;;;;351512;28;940;-72
2022/03/24 00:26:05;;;;;;;;;;;;;;;;;;351474;28;916;-72
2022/03/24 00:26:15;;;;;;;;;;;;;;;;;;351408;28;1000;-73
2022/03/24 00:26:26;;;;;;;;;;;;;;;;;;351505;28;849;-72
2022/03/24 00:26:36;;;;;;;;;;;;;;;;;;351403;28;1145;-72
2022/03/24 00:26:46;;;;;;;;;;;;;;;;;;351466;28;939;-72
2022/03/24 00:26:58;;;;;;;;;;;;;;;;;;351334;28;1021;-72
2022/03/24 00:27:09;;;;;;;;;;;;;;;;;;351507;28;1003;-72
2022/03/24 00:27:19;;;;;;;;;;;;;;;;;;351483;28;778;-72
2022/03/24 00:27:29;;;;;;;;;;;;;;;;;;351478;28;976;-72
2022/03/24 00:27:40;;;;;;;;;;;;;;;;;;351480;28;865;-72
2022/03/24 00:27:50;;;;;;;;;;;;;;;;;;351535;28;759;-72
2022/03/24 00:28:00;;;;;;;;;;;;;;;;;;351467;28;901;-72
2022/03/24 00:28:11;;;;;;;;;;;;;;;;;;351419;28;1043;-72
2022/03/24 00:28:22;;;;;;;;;;;;;;;;;;351485;28;901;-72
2022/03/24 00:28:32;;;;;;;;;;;;;;;;;;351433;28;923;-72
2022/03/24 00:28:42;;;;;;;;;;;;;;;;;;351505;28;972;-72
2022/03/24 00:28:52;;;;;;;;;;;;;;;;;;351495;28;944;-72
2022/03/24 00:29:03;;;;;;;;;;;;;;;;;;351462;28;832;-73
2022/03/24 00:29:13;;;;;;;;;;;;;;;;;;351463;28;920;-72
2022/03/24 00:29:24;;;;;;;;;;;;;;;;;;351451;28;901;-72
2022/03/24 00:29:35;;;;;;;;;;;;;;;;;;351496;28;882;-73
2022/03/24 00:29:48;;;;;;;;;;;;;;;;;;351443;28;917;-72
2022/03/24 00:29:58;;;;;;;;;;;;;;;;;;351529;28;852;-72
2022/03/24 00:30:08;;;;;;;;;;;;;;;;;;351478;28;913;-72
2022/03/24 00:30:19;;;;;;;;;;;;;;;;;;351462;28;988;-72
2022/03/24 00:30:29;;;;;;;;;;;;;;;;;;351483;28;908;-71
2022/03/24 00:30:39;;;;;;;;;;;;;;;;;;351426;28;1127;-72
2022/03/24 00:30:49;;;;;;;;;;;;;;;;;;351492;28;807;-72
2022/03/24 00:31:03;;;;;;;;;;;;;;;;;;351483;28;916;-72
2022/03/24 00:31:14;;;;;;;;;;;;;;;;;;351434;28;933;-72
2022/03/24 00:31:24;;;;;;;;;;;;;;;;;;351427;28;940;-72
2022/03/24 00:31:34;;;;;;;;;;;;;;;;;;351462;28;857;-72
2022/03/24 00:31:45;;;;;;;;;;;;;;;;;;351439;28;980;-72
2022/03/24 00:31:55;;;;;;;;;;;;;;;;;;350807;28;1772;-72
2022/03/24 00:32:05;;;;;;;;;;;;;;;;;;350281;28;1910;-72
2022/03/24 00:32:15;;;;;;;;;;;;;;;;;;351501;28;766;-72
2022/03/24 00:32:26;;;;;;;;;;;;;;;;;;351504;28;913;-72
2022/03/24 00:32:36;;;;;;;;;;;;;;;;;;350442;28;1811;-72
2022/03/24 00:32:47;;;;;;;;;;;;;;;;;;350053;28;969;-72
2022/03/24 00:32:57;;;;;;;;;;;;;;;;;;350056;28;1015;-72
2022/03/24 00:33:07;;;;;;;;;;;;;;;;;;350110;28;884;-71
2022/03/24 00:33:18;;;;;;;;;;;;;;;;;;350126;28;762;-72
2022/03/24 00:33:29;;;;;;;;;;;;;;;;;;350093;28;925;-72
2022/03/24 00:33:39;;;;;;;;;;;;;;;;;;350052;28;973;-72
2022/03/24 00:33:50;;;;;;;;;;;;;;;;;;350012;28;988;-72
2022/03/24 00:34:00;;;;;;;;;;;;;;;;;;350092;28;852;-72
2022/03/24 00:34:10;;;;;;;;;;;;;;;;;;350080;28;999;-72
2022/03/24 00:34:20;;;;;;;;;;;;;;;;;;350080;28;960;-72
2022/03/24 00:34:31;;;;;;;;;;;;;;;;;;350117;28;929;-72
2022/03/24 00:34:41;;;;;;;;;;;;;;;;;;350056;28;806;-72
2022/03/24 00:34:51;;;;;;;;;;;;;;;;;;350077;28;846;-72
2022/03/24 00:35:02;;;;;;;;;;;;;;;;;;350083;28;904;-72
2022/03/24 00:35:12;;;;;;;;;;;;;;;;;;350092;28;790;-72
2022/03/24 00:35:23;;;;;;;;;;;;;;;;;;350071;28;936;-72
2022/03/24 00:35:33;;;;;;;;;;;;;;;;;;350059;28;996;-72
2022/03/24 00:35:43;;;;;;;;;;;;;;;;;;350134;28;767;-72
2022/03/24 00:35:54;;;;;;;;;;;;;;;;;;350053;28;963;-72
2022/03/24 00:36:05;;;;;;;;;;;;;;;;;;350090;28;996;-72
2022/03/24 00:36:15;;;;;;;;;;;;;;;;;;350078;28;921;-72
2022/03/24 00:36:26;;;;;;;;;;;;;;;;;;349943;28;1230;-72
2022/03/24 00:36:36;;;;;;;;;;;;;;;;;;350079;28;857;-72
2022/03/24 00:36:47;;;;;;;;;;;;;;;;;;350066;28;964;-72
2022/03/24 00:36:57;;;;;;;;;;;;;;;;;;350006;28;913;-72
2022/03/24 00:37:09;;;;;;;;;;;;;;;;;;349913;28;1125;-72
2022/03/24 00:37:19;;;;;;;;;;;;;;;;;;350069;28;987;-72
2022/03/24 00:37:31;;;;;;;;;;;;;;;;;;351031;28;1540;-72
2022/03/24 00:37:41;;;;;;;;;;;;;;;;;;351469;28;932;-72
2022/03/24 00:37:51;;;;;;;;;;;;;;;;;;351426;28;1026;-72
2022/03/24 00:38:02;;;;;;;;;;;;;;;;;;351422;28;971;-72
2022/03/24 00:38:12;;;;;;;;;;;;;;;;;;351487;28;782;-72
2022/03/24 00:38:22;;;;;;;;;;;;;;;;;;351511;28;846;-71
2022/03/24 00:38:32;;;;;;;;;;;;;;;;;;351462;28;874;-72
2022/03/24 00:38:43;;;;;;;;;;;;;;;;;;351465;28;913;-72
2022/03/24 00:38:53;;;;;;;;;;;;;;;;;;350145;28;1816;-72
2022/03/24 00:39:04;;;;;;;;;;;;;;;;;;350821;28;1803;-72
2022/03/24 00:39:14;;;;;;;;;;;;;;;;;;351591;28;790;-72
2022/03/24 00:39:24;;;;;;;;;;;;;;;;;;351502;28;909;-72
2022/03/24 00:39:34;;;;;;;;;;;;;;;;;;350041;28;937;-72
2022/03/24 00:39:45;;;;;;;;;;;;;;;;;;350065;28;853;-72
2022/03/24 00:39:55;;;;;;;;;;;;;;;;;;350046;28;936;-72
2022/03/24 00:40:09;;;;;;;;;;;;;;;;;;350099;28;837;-72
2022/03/24 00:40:19;;;;;;;;;;;;;;;;;;350104;28;854;-72
2022/03/24 00:40:29;;;;;;;;;;;;;;;;;;350026;28;814;-72
2022/03/24 00:40:39;;;;;;;;;;;;;;;;;;349980;28;1079;-72
2022/03/24 00:40:51;;;;;;;;;;;;;;;;;;350081;28;964;-72
2022/03/24 00:41:02;;;;;;;;;;;;;;;;;;350049;28;971;-71
2022/03/24 00:41:12;;;;;;;;;;;;;;;;;;350067;28;920;-72
2022/03/24 00:41:23;;;;;;;;;;;;;;;;;;350093;28;913;-72
2022/03/24 00:41:35;;;;;;;;;;;;;;;;;;350110;28;766;-72
2022/03/24 00:41:45;;;;;;;;;;;;;;;;;;350111;28;782;-72
2022/03/24 00:41:55;;;;;;;;;;;;;;;;;;349942;28;1059;-72
2022/03/24 00:42:11;;;;;;;;;;;;;;;;;;350079;28;826;-72
2022/03/24 00:42:22;;;;;;;;;;;;;;;;;;350090;28;889;-72
2022/03/24 00:42:35;;;;;;;;;;;;;;;;;;350007;28;925;-72
2022/03/24 00:42:46;;;;;;;;;;;;;;;;;;350064;28;944;-72
2022/03/24 00:42:57;;;;;;;;;;;;;;;;;;350115;28;901;-72
2022/03/24 00:43:08;;;;;;;;;;;;;;;;;;350029;28;884;-72
2022/03/24 00:43:18;;;;;;;;;;;;;;;;;;350083;28;976;-72
2022/03/24 00:43:29;;;;;;;;;;;;;;;;;;350087;28;933;-72
2022/03/24 00:43:40;;;;;;;;;;;;;;;;;;350093;28;909;-72
2022/03/24 00:43:50;;;;;;;;;;;;;;;;;;350043;28;988;-72
2022/03/24 00:44:02;;;;;;;;;;;;;;;;;;349999;28;933;-72
2022/03/24 00:44:13;;;;;;;;;;;;;;;;;;350099;28;786;-72
2022/03/24 00:44:24;;;;;;;;;;;;;;;;;;350037;28;937;-72
2022/03/24 00:44:35;;;;;;;;;;;;;;;;;;349967;28;1043;-72
2022/03/24 00:44:46;;;;;;;;;;;;;;;;;;350082;28;820;-72
2022/03/24 00:44:57;;;;;;;;;;;;;;;;;;350011;28;1094;-72
2022/03/24 00:45:12;;;;;;;;;;;;;;;;;;349839;28;921;-72
2022/03/24 00:45:22;;;;;;;;;;;;;;;;;;349810;28;957;-72
2022/03/24 00:45:33;;;;;;;;;;;;;;;;;;350008;28;766;-72
2022/03/24 00:45:43;;;;;;;;;;;;;;;;;;350080;28;960;-72
2022/03/24 00:45:53;;;;;;;;;;;;;;;;;;350059;28;812;-72
2022/03/24 00:46:04;;;;;;;;;;;;;;;;;;349962;28;964;-72
2022/03/24 00:46:15;;;;;;;;;;;;;;;;;;350034;28;925;-72
2022/03/24 00:46:25;;;;;;;;;;;;;;;;;;350088;28;964;-72
2022/03/24 00:46:36;;;;;;;;;;;;;;;;;;349987;28;1941;-72
2022/03/24 00:46:46;;;;;;;;;;;;;;;;;;349981;28;1725;-72
2022/03/24 00:46:56;;;;;;;;;;;;;;;;;;351298;28;1721;-72
2022/03/24 00:47:06;;;;;;;;;;;;;;;;;;351441;28;885;-72
2022/03/24 00:47:17;;;;;;;;;;;;;;;;;;350846;28;1745;-72
2022/03/24 00:47:27;;;;;;;;;;;;;;;;;;350276;28;1693;-72
2022/03/24 00:47:37;;;;;;;;;;;;;;;;;;351472;28;828;-72
2022/03/24 00:47:48;;;;;;;;;;;;;;;;;;351415;28;992;-72
2022/03/24 00:47:58;;;;;;;;;;;;;;;;;;351405;28;911;-72
2022/03/24 00:48:08;;;;;;;;;;;;;;;;;;351408;28;941;-72
2022/03/24 00:48:18;;;;;;;;;;;;;;;;;;351478;28;775;-72
2022/03/24 00:48:29;;;;;;;;;;;;;;;;;;354048;27;1290;-72
2022/03/24 00:48:40;;;;;;;;;;;;;;;;;;354175;27;896;-72
2022/03/24 00:48:51;;;;;;;;;;;;;;;;;;354243;27;829;-71
2022/03/24 00:49:01;;;;;;;;;;;;;;;;;;354178;27;909;-72
2022/03/24 00:49:11;;;;;;;;;;;;;;;;;;354205;27;825;-72
2022/03/24 00:49:21;;;;;;;;;;;;;;;;;;354121;27;912;-72
2022/03/24 00:49:32;;;;;;;;;;;;;;;;;;354198;27;916;-72
2022/03/24 00:49:42;;;;;;;;;;;;;;;;;;354160;27;1003;-72
2022/03/24 00:49:52;;;;;;;;;;;;;;;;;;354170;27;1004;-72
2022/03/24 00:50:02;;;;;;;;;;;;;;;;;;354181;27;893;-72
2022/03/24 00:50:13;;;;;;;;;;;;;;;;;;354120;27;924;-72
2022/03/24 00:50:23;;;;;;;;;;;;;;;;;;353165;27;996;-72
2022/03/24 00:50:35;;;;;;;;;;;;;;;;;;351478;28;960;-72
2022/03/24 00:50:45;;;;;;;;;;;;;;;;;;351380;28;1008;-72
2022/03/24 00:50:55;;;;;;;;;;;;;;;;;;351460;28;904;-72
2022/03/24 00:51:06;;;;;;;;;;;;;;;;;;351425;28;1087;-72
2022/03/24 00:51:18;;;;;;;;;;;;;;;;;;351454;28;968;-72
2022/03/24 00:51:28;;;;;;;;;;;;;;;;;;351422;28;983;-72
2022/03/24 00:51:38;;;;;;;;;;;;;;;;;;351477;28;877;-72
2022/03/24 00:51:49;;;;;;;;;;;;;;;;;;351357;28;996;-72
2022/03/24 00:51:59;;;;;;;;;;;;;;;;;;351403;28;999;-72
2022/03/24 00:52:09;;;;;;;;;;;;;;;;;;351348;28;1965;-72
2022/03/24 00:52:19;;;;;;;;;;;;;;;;;;351370;28;920;-72
2022/03/24 00:52:30;;;;;;;;;;;;;;;;;;351464;28;834;-72
2022/03/24 00:52:41;;;;;;;;;;;;;;;;;;351462;28;881;-72
2022/03/24 00:52:51;;;;;;;;;;;;;;;;;;351467;28;891;-72
2022/03/24 00:53:02;;;;;;;;;;;;;;;;;;351473;28;971;-72
2022/03/24 00:53:12;;;;;;;;;;;;;;;;;;351409;28;1136;-73
2022/03/24 00:53:23;;;;;;;;;;;;;;;;;;351450;28;901;-72
2022/03/24 00:53:33;;;;;;;;;;;;;;;;;;351465;28;940;-72
2022/03/24 00:53:44;;;;;;;;;;;;;;;;;;351363;28;1126;-73
2022/03/24 00:53:54;;;;;;;;;;;;;;;;;;351484;28;995;-72
2022/03/24 00:54:04;;;;;;;;;;;;;;;;;;351457;28;1024;-72
2022/03/24 00:54:16;;;;;;;;;;;;;;;;;;351343;28;1006;-72
2022/03/24 00:54:26;;;;;;;;;;;;;;;;;;351399;28;881;-72
2022/03/24 00:54:38;;;;;;;;;;;;;;;;;;351457;28;924;-72
2022/03/24 00:54:48;;;;;;;;;;;;;;;;;;351465;28;869;-72
2022/03/24 00:54:58;;;;;;;;;;;;;;;;;;351365;28;968;-72
2022/03/24 00:55:11;;;;;;;;;;;;;;;;;;350486;28;1835;-72
2022/03/24 00:55:21;;;;;;;;;;;;;;;;;;351067;28;1842;-72
2022/03/24 00:55:31;;;;;;;;;;;;;;;;;;351446;28;913;-72
2022/03/24 00:55:43;;;;;;;;;;;;;;;;;;350853;28;1767;-72
2022/03/24 00:55:55;;;;;;;;;;;;;;;;;;350546;28;1812;-72
2022/03/24 00:56:06;;;;;;;;;;;;;;;;;;351437;28;1094;-73
2022/03/24 00:56:19;;;;;;;;;;;;;;;;;;351408;28;945;-72
2022/03/24 00:56:29;;;;;;;;;;;;;;;;;;351443;28;829;-72
2022/03/24 00:56:39;;;;;;;;;;;;;;;;;;351451;28;999;-72
2022/03/24 00:56:50;;;;;;;;;;;;;;;;;;351373;28;1150;-72
2022/03/24 00:57:01;;;;;;;;;;;;;;;;;;351460;28;873;-72
2022/03/24 00:57:11;;;;;;;;;;;;;;;;;;350282;27;1788;-72
2022/03/24 00:57:22;;;;;;;;;;;;;;;;;;350955;28;1756;-72
2022/03/24 00:57:32;;;;;;;;;;;;;;;;;;351488;28;897;-72
2022/03/24 00:57:43;;;;;;;;;;;;;;;;;;351245;28;1800;-72
2022/03/24 00:57:54;;;;;;;;;;;;;;;;;;351656;28;1548;-72
2022/03/24 00:58:05;;;;;;;;;;;;;;;;;;350644;28;1945;-72
2022/03/24 00:58:15;;;;;;;;;;;;;;;;;;350236;28;1902;-72
2022/03/24 00:58:25;;;;;;;;;;;;;;;;;;350093;28;825;-72
2022/03/24 00:58:36;;;;;;;;;;;;;;;;;;349908;28;1930;-72
2022/03/24 00:58:46;;;;;;;;;;;;;;;;;;351480;28;885;-72
2022/03/24 00:58:57;;;;;;;;;;;;;;;;;;351460;28;1023;-72
2022/03/24 00:59:07;;;;;;;;;;;;;;;;;;351425;28;1040;-72
2022/03/24 00:59:17;;;;;;;;;;;;;;;;;;351419;28;917;-72
2022/03/24 00:59:28;;;;;;;;;;;;;;;;;;351406;28;788;-72
2022/03/24 00:59:39;;;;;;;;;;;;;;;;;;351476;28;897;-72
2022/03/24 00:59:50;;;;;;;;;;;;;;;;;;351427;28;1112;-72
2022/03/24 01:00:00;;;;;;;;;;;;;;;;;;351462;28;975;-72
2022/03/24 01:00:15;;;;;;;;;;;;;;;;;;351506;28;952;-72
2022/03/24 01:00:25;;;;;;;;;;;;;;;;;;351347;28;848;-72
2022/03/24 01:00:36;;;;;;;;;;;;;;;;;;351477;28;826;-72
2022/03/24 01:00:47;;;;;;;;;;;;;;;;;;351419;28;936;-72
2022/03/24 01:00:57;;;;;;;;;;;;;;;;;;351458;28;798;-72
2022/03/24 01:01:12;;;;;;;;;;;;;;;;;;351355;28;984;-72
2022/03/24 01:01:22;;;;;;;;;;;;;;;;;;351483;28;867;-72
2022/03/24 01:01:32;;;;;;;;;;;;;;;;;;351420;28;968;-72
2022/03/24 01:01:42;;;;;;;;;;;;;;;;;;351364;28;998;-72
2022/03/24 01:01:55;;;;;;;;;;;;;;;;;;351431;28;1094;-72
2022/03/24 01:02:09;;;;;;;;;;;;;;;;;;351421;28;944;-72
2022/03/24 01:02:19;;;;;;;;;;;;;;;;;;351429;28;928;-72
2022/03/24 01:02:30;;;;;;;;;;;;;;;;;;351118;28;1930;-72
2022/03/24 01:02:40;;;;;;;;;;;;;;;;;;350279;28;1893;-72
2022/03/24 01:02:52;;;;;;;;;;;;;;;;;;351057;28;2173;-72
2022/03/24 01:03:05;;;;;;;;;;;;;;;;;;351447;28;834;-72
2022/03/24 01:03:15;;;;;;;;;;;;;;;;;;350499;28;1897;-72
2022/03/24 01:03:26;;;;;;;;;;;;;;;;;;350039;28;945;-72
2022/03/24 01:03:36;;;;;;;;;;;;;;;;;;350047;28;884;-73
2022/03/24 01:03:46;;;;;;;;;;;;;;;;;;350043;28;917;-72
2022/03/24 01:03:56;;;;;;;;;;;;;;;;;;350020;28;968;-72
2022/03/24 01:04:08;;;;;;;;;;;;;;;;;;350015;28;1012;-72
2022/03/24 01:04:18;;;;;;;;;;;;;;;;;;350058;28;881;-72
2022/03/24 01:04:30;;;;;;;;;;;;;;;;;;350014;28;913;-72
2022/03/24 01:04:41;;;;;;;;;;;;;;;;;;350007;28;996;-72
2022/03/24 01:04:51;;;;;;;;;;;;;;;;;;350010;28;829;-72
2022/03/24 01:05:02;;;;;;;;;;;;;;;;;;350011;28;868;-72
2022/03/24 01:05:13;;;;;;;;;;;;;;;;;;349885;28;1027;-72
2022/03/24 01:05:27;;;;;;;;;;;;;;;;;;349953;28;932;-72
2022/03/24 01:05:38;;;;;;;;;;;;;;;;;;349934;28;928;-72
2022/03/24 01:05:48;;;;;;;;;;;;;;;;;;349909;28;1050;-72
2022/03/24 01:05:58;;;;;;;;;;;;;;;;;;349938;28;917;-72
2022/03/24 01:06:09;;;;;;;;;;;;;;;;;;349878;28;1023;-72
2022/03/24 01:06:22;;;;;;;;;;;;;;;;;;349968;28;908;-72
2022/03/24 01:06:33;;;;;;;;;;;;;;;;;;349885;28;1046;-72
2022/03/24 01:06:43;;;;;;;;;;;;;;;;;;349918;28;1105;-72
2022/03/24 01:06:53;;;;;;;;;;;;;;;;;;349889;28;980;-72
2022/03/24 01:07:04;;;;;;;;;;;;;;;;;;349922;28;984;-72
2022/03/24 01:07:14;;;;;;;;;;;;;;;;;;350050;28;940;-72
2022/03/24 01:07:24;;;;;;;;;;;;;;;;;;350188;28;1579;-72
2022/03/24 01:07:35;;;;;;;;;;;;;;;;;;351321;28;1421;-72
2022/03/24 01:07:46;;;;;;;;;;;;;;;;;;351428;28;845;-72
2022/03/24 01:07:56;;;;;;;;;;;;;;;;;;351446;28;848;-72
2022/03/24 01:08:08;;;;;;;;;;;;;;;;;;351453;28;892;-72
2022/03/24 01:08:19;;;;;;;;;;;;;;;;;;351436;28;935;-72
2022/03/24 01:08:31;;;;;;;;;;;;;;;;;;351448;28;912;-72
2022/03/24 01:08:41;;;;;;;;;;;;;;;;;;351500;28;804;-72
2022/03/24 01:08:51;;;;;;;;;;;;;;;;;;351407;28;983;-72
2022/03/24 01:09:03;;;;;;;;;;;;;;;;;;351375;28;904;-72
2022/03/24 01:09:13;;;;;;;;;;;;;;;;;;351457;28;931;-72
2022/03/24 01:09:23;;;;;;;;;;;;;;;;;;351481;28;928;-72
2022/03/24 01:09:33;;;;;;;;;;;;;;;;;;351260;28;1002;-72
2022/03/24 01:09:44;;;;;;;;;;;;;;;;;;351427;28;967;-72
2022/03/24 01:09:54;;;;;;;;;;;;;;;;;;351481;28;804;-72
2022/03/24 01:10:05;;;;;;;;;;;;;;;;;;351416;28;932;-72
2022/03/24 01:10:16;;;;;;;;;;;;;;;;;;351414;28;975;-72
2022/03/24 01:10:27;;;;;;;;;;;;;;;;;;351464;28;932;-72
2022/03/24 01:10:37;;;;;;;;;;;;;;;;;;351369;28;1009;-72
2022/03/24 01:10:48;;;;;;;;;;;;;;;;;;351469;28;904;-72
2022/03/24 01:10:58;;;;;;;;;;;;;;;;;;351429;28;956;-72
2022/03/24 01:11:09;;;;;;;;;;;;;;;;;;351435;28;904;-72
2022/03/24 01:11:19;;;;;;;;;;;;;;;;;;351438;28;971;-72
2022/03/24 01:11:31;;;;;;;;;;;;;;;;;;351380;28;897;-72
2022/03/24 01:11:41;;;;;;;;;;;;;;;;;;351413;28;1026;-72
2022/03/24 01:11:51;;;;;;;;;;;;;;;;;;351449;28;955;-72
2022/03/24 01:12:02;;;;;;;;;;;;;;;;;;351364;28;1914;-72
2022/03/24 01:12:13;;;;;;;;;;;;;;;;;;351454;28;844;-72
2022/03/24 01:12:23;;;;;;;;;;;;;;;;;;351456;28;919;-72
2022/03/24 01:12:34;;;;;;;;;;;;;;;;;;350770;28;1942;-72
2022/03/24 01:12:45;;;;;;;;;;;;;;;;;;350098;28;1878;-72
2022/03/24 01:12:59;;;;;;;;;;;;;;;;;;351405;28;924;-72
2022/03/24 01:13:09;;;;;;;;;;;;;;;;;;351313;28;1034;-72
2022/03/24 01:13:21;;;;;;;;;;;;;;;;;;350023;28;1906;-72
2022/03/24 01:13:36;;;;;;;;;;;;;;;;;;349995;28;1035;-72
2022/03/24 01:13:46;;;;;;;;;;;;;;;;;;350006;28;999;-72
2022/03/24 01:13:56;;;;;;;;;;;;;;;;;;350031;28;893;-72
2022/03/24 01:14:07;;;;;;;;;;;;;;;;;;349983;28;790;-72
2022/03/24 01:14:17;;;;;;;;;;;;;;;;;;350016;28;929;-72
2022/03/24 01:14:27;;;;;;;;;;;;;;;;;;350031;28;1370;-72
2022/03/24 01:14:38;;;;;;;;;;;;;;;;;;349955;28;972;-72
2022/03/24 01:14:49;;;;;;;;;;;;;;;;;;350025;28;1035;-72
2022/03/24 01:14:59;;;;;;;;;;;;;;;;;;350002;28;1039;-72
2022/03/24 01:15:10;;;;;;;;;;;;;;;;;;349944;28;912;-72
2022/03/24 01:15:22;;;;;;;;;;;;;;;;;;350020;28;980;-72
2022/03/24 01:15:34;;;;;;;;;;;;;;;;;;349983;28;932;-72
2022/03/24 01:15:45;;;;;;;;;;;;;;;;;;349953;28;916;-72
2022/03/24 01:15:55;;;;;;;;;;;;;;;;;;350067;28;1015;-72
2022/03/24 01:16:09;;;;;;;;;;;;;;;;;;350254;28;1289;-72
2022/03/24 01:16:19;;;;;;;;;;;;;;;;;;351340;28;1007;-72
2022/03/24 01:16:30;;;;;;;;;;;;;;;;;;351426;28;964;-72